Time;durP1;ratioP1;P1;durP2;ratioP2;P2;SDS_P1;SDS_P2;PMS_P1;PMS_P2;Temp;Humidity;BMP_temperature;BMP_pressure;BME280_temperature;BME280_humidity;BME280_pressure;Samples;Min_cycle;Max_cycle;Signal;HPM_P1;HPM_P2
2022/04/17 00:00:59;;;;;;;;;;;;;;;4.62;65.68;102124.09;4940855;29;1254;-88
2022/04/17 00:03:24;;;;;;;;;;;;;;;4.64;65.23;102124.72;4940154;29;1891;-88
2022/04/17 00:06:10;;;;;;;;;;;;;;;4.60;65.75;102118.84;4926608;29;1202;-88
2022/04/17 00:09:13;;;;;;;;;;;;;;;4.55;65.28;102118.63;4921046;29;1277;-88
2022/04/17 00:12:06;;;;;;;;;;;;;;;4.55;65.50;102108.63;4934265;29;1444;-87
2022/04/17 00:14:39;;;;;;;;;;;;;;;4.59;65.64;102113.66;4929608;29;1174;-88
2022/04/17 00:17:10;;;;;;;;;;;;;;;4.48;65.21;102106.94;4923777;29;1708;-88
2022/04/17 00:19:46;;;;;;;;;;;;;;;4.35;65.80;102115.81;4936033;29;1553;-88
2022/04/17 00:22:17;;;;;;;;;;;;;;;4.36;65.41;102114.78;4957430;29;1902;-88
2022/04/17 00:24:59;;;;;;;;;;;;;;;4.26;65.66;102105.31;4957330;28;1391;-88
2022/04/17 00:27:31;;;;;;;;;;;;;;;4.12;66.55;102107.97;4938856;29;1274;-88
2022/04/17 00:29:57;;;;;;;;;;;;;;;4.22;66.09;102109.50;4940471;29;1349;-88
2022/04/17 00:32:22;;;;;;;;;;;;;;;3.94;66.80;102106.78;4940183;29;1411;-88
2022/04/17 00:34:59;;;;;;;;;;;;;;;4.00;67.23;102103.28;4937164;29;1490;-89
2022/04/17 00:37:29;;;;;;;;;;;;;;;3.82;67.46;102108.38;4956048;29;1454;-88
2022/04/17 00:40:02;;;;;;;;;;;;;;;3.83;67.39;102104.66;4939929;29;1258;-88
2022/04/17 00:42:44;;;;;;;;;;;;;;;3.93;68.20;102108.66;4939994;29;1906;-87
2022/04/17 00:45:53;;;;;;;;;;;;;;;;;;;;;
2022/04/17 00:51:10;;;;;;;;;;;;;;;3.90;67.21;102084.69;4955906;29;1754;-88
2022/04/17 00:53:42;;;;;;;;;;;;;;;3.86;67.47;102088.00;4929985;29;1325;-88
2022/04/17 00:56:12;;;;;;;;;;;;;;;3.96;68.20;102086.59;4940040;29;1269;-88
2022/04/17 00:58:45;;;;;;;;;;;;;;;3.97;67.23;102085.56;4938899;29;1443;-88
2022/04/17 01:01:16;;;;;;;;;;;;;;;3.63;68.00;102088.25;4939452;29;1330;-88
2022/04/17 01:03:48;;;;;;;;;;;;;;;3.55;68.76;102082.97;4939633;29;1324;-88
2022/04/17 01:06:13;;;;;;;;;;;;;;;3.78;68.50;102080.84;4939193;29;1297;-88
2022/04/17 01:08:41;;;;;;;;;;;;;;;3.68;67.13;102083.06;4937304;29;1415;-87
2022/04/17 01:11:18;;;;;;;;;;;;;;;3.56;67.52;102079.22;4939537;29;1346;-88
2022/04/17 01:14:02;;;;;;;;;;;;;;;3.50;67.54;102072.72;4938706;29;1269;-88
2022/04/17 01:16:33;;;;;;;;;;;;;;;2.72;70.27;102076.31;4955755;29;1461;-88
2022/04/17 01:19:11;;;;;;;;;;;;;;;2.97;70.65;102074.94;4939140;29;1442;-88
2022/04/17 01:27:37;;;;;;;;;;;;;;;3.44;69.29;102065.38;4964256;28;1830;-88
2022/04/17 01:30:28;;;;;;;;;;;;;;;3.46;68.43;102074.16;4941051;29;1311;-88
2022/04/17 01:39:52;;;;;;;;;;;;;;;3.37;68.24;102069.91;4859701;29;1171;-89
2022/04/17 01:42:17;;;;;;;;;;;;;;;3.24;68.12;102069.75;4867786;29;1964;-88
2022/04/17 01:44:49;;;;;;;;;;;;;;;3.11;68.76;102067.78;4935766;29;1264;-88
2022/04/17 01:47:21;;;;;;;;;;;;;;;2.97;68.42;102065.97;4939075;29;1198;-88
2022/04/17 01:50:11;;;;;;;;;;;;;;;2.95;68.62;102066.16;4938847;29;1308;-88
2022/04/17 02:04:40;;;;;;;;;;;;;;;2.85;69.70;102070.22;4953694;28;1333;-88
2022/04/17 02:07:06;;;;;;;;;;;;;;;2.75;69.44;102066.97;4937016;29;1800;-89
2022/04/17 02:09:31;;;;;;;;;;;;;;;2.67;69.81;102073.34;4937998;29;1403;-87
2022/04/17 02:11:59;;;;;;;;;;;;;;;2.82;69.53;102060.59;4938392;29;1266;-88
2022/04/17 02:14:27;;;;;;;;;;;;;;;2.94;69.90;102066.34;4938033;29;1380;-87
2022/04/17 02:20:26;;;;;;;;;;;;;;;2.86;69.54;102063.78;4923389;29;1490;-88
2022/04/17 02:23:31;;;;;;;;;;;;;;;2.85;69.36;102062.94;4912178;29;2352;-88
2022/04/17 02:35:06;;;;;;;;;;;;;;;2.43;70.12;102049.34;4929230;29;1298;-88
2022/04/17 02:38:19;;;;;;;;;;;;;;;;;;;;;
2022/04/17 02:50:07;;;;;;;;;;;;;;;2.49;70.35;102037.75;4935901;29;1198;-88
2022/04/17 02:52:53;;;;;;;;;;;;;;;2.24;71.06;102034.56;4937352;29;1326;-89
2022/04/17 02:56:24;;;;;;;;;;;;;;;2.44;71.76;102034.81;4954755;28;1281;-88
2022/04/17 02:58:57;;;;;;;;;;;;;;;;;;;;;
2022/04/17 03:16:46;;;;;;;;;;;;;;;2.26;71.16;102014.44;4934234;29;675;-88
2022/04/17 03:19:50;;;;;;;;;;;;;;;;;;;;;
2022/04/17 04:33:37;;;;;;;;;;;;;;;1.44;71.81;101980.47;4861285;29;986;-89
2022/04/17 04:36:41;;;;;;;;;;;;;;;;;;;;;
2022/04/17 04:39:15;;;;;;;;;;;;;;;1.57;71.77;101974.44;4893703;29;1162;-89
2022/04/17 04:44:43;;;;;;;;;;;;;;;1.52;71.35;101973.16;4932421;29;1289;-89
2022/04/17 04:47:31;;;;;;;;;;;;;;;1.41;72.27;101986.25;4921398;29;1474;-89
2022/04/17 04:50:37;;;;;;;;;;;;;;;;;;;;;
2022/04/17 04:56:34;;;;;;;;;;;;;;;1.79;71.75;101981.59;4939815;29;1211;-89
2022/04/17 04:59:04;;;;;;;;;;;;;;;1.71;71.78;101978.97;4940251;29;1380;-89
2022/04/17 05:01:49;;;;;;;;;;;;;;;1.67;71.65;101972.31;4939745;29;1898;-89
2022/04/17 05:04:35;;;;;;;;;;;;;;;1.75;72.84;101980.31;4936187;29;1341;-89
2022/04/17 05:25:45;;;;;;;;;;;;;;;1.95;71.94;101967.06;4870329;29;1316;-90
2022/04/17 05:28:10;;;;;;;;;;;;;;;2.15;71.97;101965.44;4951281;29;1322;-90
2022/04/17 05:30:35;;;;;;;;;;;;;;;1.84;73.28;101965.69;4939514;29;1280;-90
2022/04/17 05:33:06;;;;;;;;;;;;;;;1.98;72.30;101967.53;4938964;29;1233;-91
2022/04/17 05:35:32;;;;;;;;;;;;;;;1.98;72.61;101974.78;4939738;29;1325;-90
2022/04/17 05:38:05;;;;;;;;;;;;;;;2.17;72.34;101971.50;4938561;29;1290;-89
2022/04/17 05:40:46;;;;;;;;;;;;;;;2.32;72.64;101968.75;4939174;29;1429;-90
2022/04/17 05:43:17;;;;;;;;;;;;;;;2.41;72.42;101975.72;4953487;29;1890;-90
2022/04/17 05:45:54;;;;;;;;;;;;;;;2.47;72.74;101975.78;4938740;29;1297;-90
2022/04/17 05:48:20;;;;;;;;;;;;;;;2.45;71.74;101977.88;4939222;29;1302;-90
2022/04/17 05:50:49;;;;;;;;;;;;;;;2.43;72.01;101981.78;4938978;29;1400;-89
2022/04/17 05:53:22;;;;;;;;;;;;;;;2.49;71.77;101981.00;4938150;29;1411;-89
2022/04/17 05:55:55;;;;;;;;;;;;;;;2.58;72.09;101980.69;4939125;29;1373;-90
2022/04/17 06:01:52;;;;;;;;;;;;;;;;;;;;;
2022/04/17 06:04:54;;;;;;;;;;;;;;;3.08;71.77;101975.34;4954800;29;1382;-89
2022/04/17 06:07:44;;;;;;;;;;;;;;;3.08;72.10;101986.16;4954096;28;1511;-89
2022/04/17 06:10:31;;;;;;;;;;;;;;;2.96;73.11;101984.00;4948683;28;1341;-89
2022/04/17 06:25:32;;;;;;;;;;;;;;;3.94;70.69;101980.31;4878389;29;1194;-88
2022/04/17 06:28:03;;;;;;;;;;;;;;;3.87;71.74;101981.31;4933561;29;1496;-89
2022/04/17 06:30:28;;;;;;;;;;;;;;;3.96;71.32;101975.53;4937700;28;1369;-89
2022/04/17 06:35:40;;;;;;;;;;;;;;;3.99;72.01;101975.16;4955614;28;1458;-89
2022/04/17 06:38:41;;;;;;;;;;;;;;;;;;;;;
2022/04/17 06:41:12;;;;;;;;;;;;;;;4.08;71.11;101976.63;4936431;29;1188;-90
2022/04/17 06:43:37;;;;;;;;;;;;;;;4.11;72.08;101970.81;4926326;29;1915;-90
2022/04/17 06:46:02;;;;;;;;;;;;;;;4.28;70.89;101965.03;4938407;29;1340;-89
2022/04/17 06:48:27;;;;;;;;;;;;;;;4.40;70.13;101963.41;4933949;29;1141;-89
2022/04/17 06:50:52;;;;;;;;;;;;;;;4.39;68.97;101957.16;4920581;29;1336;-89
2022/04/17 06:53:18;;;;;;;;;;;;;;;4.46;70.01;101957.16;4936738;29;1321;-88
2022/04/17 06:55:43;;;;;;;;;;;;;;;4.55;69.22;101954.06;4936899;29;1285;-88
2022/04/17 06:58:08;;;;;;;;;;;;;;;4.75;68.64;101956.00;4942796;29;1363;-88
2022/04/17 07:00:34;;;;;;;;;;;;;;;4.81;68.42;101950.56;4938025;29;989;-88
2022/04/17 07:02:59;;;;;;;;;;;;;;;4.92;68.65;101952.66;4937559;29;1895;-88
2022/04/17 07:05:25;;;;;;;;;;;;;;;5.08;68.63;101947.88;4955101;28;1262;-88
2022/04/17 07:08:00;;;;;;;;;;;;;;;5.20;68.16;101948.88;4941829;29;1368;-88
2022/04/17 07:10:26;;;;;;;;;;;;;;;5.31;67.43;101948.25;4957973;28;1262;-88
2022/04/17 07:12:52;;;;;;;;;;;;;;;5.41;66.51;101953.28;4939930;29;776;-89
2022/04/17 07:15:17;;;;;;;;;;;;;;;5.44;66.75;101945.56;4922532;29;1281;-88
2022/04/17 07:17:44;;;;;;;;;;;;;;;5.49;66.94;101947.63;4922732;29;1334;-88
2022/04/17 07:20:09;;;;;;;;;;;;;;;5.57;67.62;101944.69;4920326;29;1390;-88
2022/04/17 07:22:35;;;;;;;;;;;;;;;5.61;66.95;101933.16;4938803;29;1950;-88
2022/04/17 07:25:01;;;;;;;;;;;;;;;5.64;66.53;101938.19;4959884;28;1362;-88
2022/04/17 07:27:27;;;;;;;;;;;;;;;5.69;67.07;101940.28;4941723;29;1301;-89
2022/04/17 07:29:55;;;;;;;;;;;;;;;5.71;66.94;101933.56;4939405;29;1142;-88
2022/04/17 07:32:20;;;;;;;;;;;;;;;5.74;66.46;101940.47;4934262;29;1273;-88
2022/04/17 07:34:45;;;;;;;;;;;;;;;5.76;66.21;101941.09;4940846;29;1333;-88
2022/04/17 07:37:11;;;;;;;;;;;;;;;5.78;66.79;101935.44;4958506;28;764;-88
2022/04/17 07:39:36;;;;;;;;;;;;;;;5.77;66.97;101940.03;4959749;28;1190;-88
2022/04/17 07:42:01;;;;;;;;;;;;;;;5.82;66.63;101936.66;4936484;29;1902;-89
2022/04/17 07:44:29;;;;;;;;;;;;;;;5.84;65.51;101931.84;4932589;29;1411;-89
2022/04/17 07:46:54;;;;;;;;;;;;;;;5.88;65.26;101935.84;4959594;28;1385;-89
2022/04/17 07:49:20;;;;;;;;;;;;;;;5.93;65.48;101933.31;4955320;28;1499;-88
2022/04/17 07:51:45;;;;;;;;;;;;;;;5.96;65.20;101925.56;4934281;29;1308;-88
2022/04/17 07:54:10;;;;;;;;;;;;;;;5.99;64.66;101933.28;4938190;29;1281;-87
2022/04/17 07:56:36;;;;;;;;;;;;;;;6.03;65.37;101928.28;4958006;28;1423;-88
2022/04/17 07:59:01;;;;;;;;;;;;;;;6.06;65.01;101930.53;4940660;29;1270;-88
2022/04/17 08:01:27;;;;;;;;;;;;;;;6.11;64.65;101919.03;4956556;28;948;-88
2022/04/17 08:03:52;;;;;;;;;;;;;;;6.13;64.34;101915.03;4940419;29;1895;-87
2022/04/17 08:06:20;;;;;;;;;;;;;;;6.17;64.18;101919.00;4939471;28;1302;-88
2022/04/17 08:08:45;;;;;;;;;;;;;;;6.21;64.11;101920.22;4921814;29;1338;-89
2022/04/17 08:11:11;;;;;;;;;;;;;;;6.31;64.16;101914.31;4922326;29;1338;-87
2022/04/17 08:13:37;;;;;;;;;;;;;;;6.37;64.37;101918.91;4948725;29;1437;-88
2022/04/17 08:16:04;;;;;;;;;;;;;;;6.42;63.53;101911.75;4957233;28;1253;-88
2022/04/17 08:18:29;;;;;;;;;;;;;;;6.51;64.16;101908.75;4967802;28;1134;-87
2022/04/17 08:20:54;;;;;;;;;;;;;;;6.60;64.12;101902.84;4942312;29;1490;-87
2022/04/17 08:23:20;;;;;;;;;;;;;;;6.69;63.63;101898.81;4939645;29;1952;-87
2022/04/17 08:25:46;;;;;;;;;;;;;;;6.78;63.64;101894.75;4931845;29;1302;-87
2022/04/17 08:28:11;;;;;;;;;;;;;;;6.92;63.24;101897.34;4938833;29;1499;-87
2022/04/17 08:30:39;;;;;;;;;;;;;;;7.01;62.40;101896.84;4951111;29;1715;-88
2022/04/17 08:33:06;;;;;;;;;;;;;;;7.08;62.64;101900.34;4955441;29;1296;-87
2022/04/17 08:35:31;;;;;;;;;;;;;;;7.16;61.40;101900.06;4937852;28;1376;-87
2022/04/17 08:37:59;;;;;;;;;;;;;;;7.22;62.46;101896.47;4923583;28;1349;-87
2022/04/17 08:40:24;;;;;;;;;;;;;;;7.29;60.86;101903.72;4939288;29;1352;-88
2022/04/17 08:42:50;;;;;;;;;;;;;;;7.34;60.79;101892.97;4932793;29;1899;-87
2022/04/17 08:45:15;;;;;;;;;;;;;;;7.37;59.70;101892.53;4931975;29;1542;-88
2022/04/17 08:47:41;;;;;;;;;;;;;;;7.37;59.91;101887.09;4940082;29;1239;-88
2022/04/17 08:50:07;;;;;;;;;;;;;;;7.42;59.04;101885.34;4939311;29;1391;-88
2022/04/17 08:52:33;;;;;;;;;;;;;;;7.46;58.76;101878.41;4939396;29;1291;-87
2022/04/17 08:54:59;;;;;;;;;;;;;;;7.56;59.52;101883.34;4937795;29;1303;-88
2022/04/17 09:30:53;;;;;;;;;;;;;;;8.62;54.02;101820.81;4955129;29;1180;-86
2022/04/17 09:33:18;;;;;;;;;;;;;;;8.71;53.36;101813.97;4952727;28;1427;-87
2022/04/17 09:35:53;;;;;;;;;;;;;;;8.75;53.83;101808.03;4936270;29;1027;-86
2022/04/17 09:38:22;;;;;;;;;;;;;;;8.81;54.39;101810.63;4936188;29;1347;-86
2022/04/17 09:40:48;;;;;;;;;;;;;;;8.92;53.77;101795.34;4936225;29;1324;-86
2022/04/17 09:43:15;;;;;;;;;;;;;;;8.97;52.00;101795.44;4935937;29;1895;-86
2022/04/17 09:45:54;;;;;;;;;;;;;;;9.03;51.64;101784.38;4937363;29;996;-86
2022/04/17 09:48:20;;;;;;;;;;;;;;;9.11;52.35;101777.72;4955815;28;1756;-86
2022/04/17 09:50:45;;;;;;;;;;;;;;;9.21;51.98;101777.94;4958357;28;1225;-86
2022/04/17 09:53:10;;;;;;;;;;;;;;;9.38;51.26;101764.38;4975596;28;968;-86
2022/04/17 09:55:38;;;;;;;;;;;;;;;9.36;50.92;101777.44;4975504;28;1028;-87
2022/04/17 09:58:04;;;;;;;;;;;;;;;9.36;48.20;101771.97;4949130;28;1372;-86
2022/04/17 10:00:39;;;;;;;;;;;;;;;9.40;46.86;101763.06;4938960;29;1348;-86
2022/04/17 10:03:07;;;;;;;;;;;;;;;9.38;47.50;101762.47;4943773;29;1902;-86
2022/04/17 10:05:32;;;;;;;;;;;;;;;9.45;48.38;101754.13;4974558;28;1744;-85
2022/04/17 10:07:57;;;;;;;;;;;;;;;9.45;45.73;101751.41;4975289;28;1269;-86
2022/04/17 10:10:23;;;;;;;;;;;;;;;9.46;44.93;101747.59;4975403;28;976;-86
2022/04/17 10:12:48;;;;;;;;;;;;;;;9.45;46.84;101743.19;4958037;28;1228;-86
2022/04/17 10:15:13;;;;;;;;;;;;;;;9.53;48.57;101742.81;4957728;28;815;-86
2022/04/17 10:17:41;;;;;;;;;;;;;;;9.68;46.53;101739.56;4942492;28;1592;-85
2022/04/17 10:20:08;;;;;;;;;;;;;;;9.85;46.82;101744.00;4956008;29;814;-86
2022/04/17 10:22:34;;;;;;;;;;;;;;;9.85;44.57;101735.81;4938008;29;1961;-86
2022/04/17 10:24:59;;;;;;;;;;;;;;;9.78;44.43;101731.56;4938045;29;1239;-87
2022/04/17 10:27:28;;;;;;;;;;;;;;;9.70;43.99;101735.50;4934478;29;1404;-85
2022/04/17 10:29:56;;;;;;;;;;;;;;;9.65;46.74;101727.22;4936244;29;831;-86
2022/04/17 10:32:40;;;;;;;;;;;;;;;9.61;45.20;101725.22;4944163;29;1913;-86
2022/04/17 10:35:17;;;;;;;;;;;;;;;9.72;47.17;101724.31;4935916;29;1373;-86
2022/04/17 10:38:01;;;;;;;;;;;;;;;9.99;43.38;101721.81;4937522;29;1450;-86
2022/04/17 10:40:26;;;;;;;;;;;;;;;10.22;45.35;101719.78;4955330;28;1359;-86
2022/04/17 10:42:56;;;;;;;;;;;;;;;10.49;46.16;101710.91;4938157;29;1910;-86
2022/04/17 10:45:22;;;;;;;;;;;;;;;10.66;45.16;101705.41;4938349;29;1356;-86
2022/04/17 10:48:01;;;;;;;;;;;;;;;10.77;45.38;101705.31;4955190;28;1304;-86
2022/04/17 10:50:28;;;;;;;;;;;;;;;10.81;43.96;101697.38;4938246;29;1578;-86
2022/04/17 10:52:54;;;;;;;;;;;;;;;10.84;41.43;101686.78;4938166;29;1522;-86
2022/04/17 10:55:20;;;;;;;;;;;;;;;10.88;42.79;101687.94;4938160;29;1629;-86
2022/04/17 10:57:46;;;;;;;;;;;;;;;10.94;43.70;101680.59;4937356;29;1387;-87
2022/04/17 11:00:36;;;;;;;;;;;;;;;10.97;45.55;101674.63;4955070;29;1072;-87
2022/04/17 11:03:08;;;;;;;;;;;;;;;10.91;46.26;101681.09;4955062;29;1969;-86
2022/04/17 11:06:07;;;;;;;;;;;;;;;10.86;46.97;101681.88;4954373;29;1279;-86
2022/04/17 11:08:20;;;;;;;;;;;;;;;10.78;45.14;101679.56;4945522;29;1587;-85
2022/04/17 11:10:49;;;;;;;;;;;;;;;10.71;45.84;101670.72;4937328;29;1356;-86
2022/04/17 11:13:16;;;;;;;;;;;;;;;10.78;43.12;101668.63;4954076;28;811;-86
2022/04/17 11:15:43;;;;;;;;;;;;;;;10.82;45.97;101661.53;4936814;29;1174;-86
2022/04/17 11:18:09;;;;;;;;;;;;;;;10.73;45.46;101654.84;4951415;28;1279;-86
2022/04/17 11:20:35;;;;;;;;;;;;;;;10.73;43.40;101659.50;4933715;29;1354;-86
2022/04/17 11:23:00;;;;;;;;;;;;;;;10.73;43.41;101654.84;4954318;28;1907;-86
2022/04/17 11:25:28;;;;;;;;;;;;;;;10.75;42.57;101641.72;4954975;29;1339;-87
2022/04/17 11:27:54;;;;;;;;;;;;;;;10.67;39.38;101646.81;4937632;29;1292;-86
2022/04/17 11:30:19;;;;;;;;;;;;;;;10.67;38.11;101620.25;4937377;29;1198;-85
2022/04/17 11:32:46;;;;;;;;;;;;;;;10.95;40.37;101632.94;4938230;28;1403;-86
2022/04/17 11:35:12;;;;;;;;;;;;;;;10.95;41.08;101635.69;4931118;29;1356;-85
2022/04/17 11:37:38;;;;;;;;;;;;;;;10.95;42.87;101636.53;4935158;29;1266;-85
2022/04/17 11:40:13;;;;;;;;;;;;;;;10.95;43.82;101632.94;4953746;29;1044;-85
2022/04/17 11:42:42;;;;;;;;;;;;;;;11.05;44.32;101629.50;4937540;29;1955;-86
2022/04/17 11:45:07;;;;;;;;;;;;;;;11.07;41.30;101630.88;4945451;29;1281;-86
2022/04/17 11:47:37;;;;;;;;;;;;;;;11.06;40.49;101626.50;4924875;29;1308;-85
2022/04/17 11:50:03;;;;;;;;;;;;;;;11.17;40.77;101614.56;4940437;29;1571;-86
2022/04/17 11:52:28;;;;;;;;;;;;;;;11.25;41.89;101614.09;4937442;29;989;-86
2022/04/17 11:54:55;;;;;;;;;;;;;;;11.29;42.53;101609.78;4921779;29;1045;-85
2022/04/17 11:57:20;;;;;;;;;;;;;;;11.34;42.63;101609.00;4921958;29;1273;-86
2022/04/17 11:59:46;;;;;;;;;;;;;;;11.46;41.39;101606.94;4938472;29;843;-86
2022/04/17 12:02:16;;;;;;;;;;;;;;;11.45;37.16;101601.72;4937540;29;1890;-86
2022/04/17 12:04:42;;;;;;;;;;;;;;;11.61;39.90;101609.81;4937426;29;1201;-86
2022/04/17 12:07:07;;;;;;;;;;;;;;;11.60;39.82;101599.94;4937658;29;1360;-86
2022/04/17 12:09:33;;;;;;;;;;;;;;;11.67;37.60;101594.22;4954485;29;1316;-86
2022/04/17 12:11:59;;;;;;;;;;;;;;;11.71;39.60;101593.47;4948473;29;1336;-86
2022/04/17 12:14:31;;;;;;;;;;;;;;;11.88;37.52;101593.34;4921792;29;815;-85
2022/04/17 12:16:56;;;;;;;;;;;;;;;12.03;38.37;101571.50;4927281;28;1534;-86
2022/04/17 12:19:22;;;;;;;;;;;;;;;12.07;38.77;101577.31;4958083;29;981;-85
2022/04/17 12:21:48;;;;;;;;;;;;;;;12.10;39.22;101563.88;4950114;29;1962;-86
2022/04/17 12:24:13;;;;;;;;;;;;;;;12.20;38.71;101565.84;4939725;29;1308;-86
2022/04/17 12:26:38;;;;;;;;;;;;;;;12.41;36.50;101558.56;4940763;29;1254;-86
2022/04/17 12:29:07;;;;;;;;;;;;;;;12.48;39.25;101559.97;4940300;29;1304;-86
2022/04/17 12:31:33;;;;;;;;;;;;;;;12.51;40.37;101556.66;4940330;29;1383;-86
2022/04/17 12:34:19;;;;;;;;;;;;;;;12.36;38.09;101531.88;4940191;29;1314;-86
2022/04/17 12:36:44;;;;;;;;;;;;;;;12.60;38.40;101558.91;4957548;28;862;-85
2022/04/17 12:39:09;;;;;;;;;;;;;;;12.62;37.58;101545.72;4940403;29;1205;-85
2022/04/17 12:41:46;;;;;;;;;;;;;;;12.75;36.92;101537.84;4957347;28;1352;-86
2022/04/17 12:44:11;;;;;;;;;;;;;;;12.83;36.47;101537.31;4955826;28;1895;-86
2022/04/17 12:46:42;;;;;;;;;;;;;;;12.88;37.48;101540.06;4935575;29;1190;-86
2022/04/17 12:49:10;;;;;;;;;;;;;;;12.80;37.77;101542.50;4947158;29;1207;-88
2022/04/17 12:51:39;;;;;;;;;;;;;;;12.83;34.59;101540.06;4938257;29;1322;-88
2022/04/17 12:54:10;;;;;;;;;;;;;;;12.89;33.94;101527.97;4923649;29;1400;-86
2022/04/17 12:56:35;;;;;;;;;;;;;;;13.02;34.64;101536.78;4949476;29;1289;-86
2022/04/17 12:59:04;;;;;;;;;;;;;;;13.15;33.82;101525.31;4936309;29;1329;-86
2022/04/17 13:01:30;;;;;;;;;;;;;;;13.37;31.32;101516.81;4956730;29;1025;-86
2022/04/17 13:04:06;;;;;;;;;;;;;;;13.44;32.87;101522.88;4937981;29;1944;-86
2022/04/17 13:06:31;;;;;;;;;;;;;;;13.63;33.18;101515.69;4955448;28;1967;-87
2022/04/17 13:09:02;;;;;;;;;;;;;;;13.89;31.02;101509.06;4936148;29;1651;-88
2022/04/17 13:11:38;;;;;;;;;;;;;;;14.12;32.13;101512.34;4955512;29;1353;-86
2022/04/17 13:14:04;;;;;;;;;;;;;;;14.32;32.65;101502.06;4956783;29;1015;-86
2022/04/17 13:16:31;;;;;;;;;;;;;;;14.71;32.23;101502.22;4938607;29;1368;-85
2022/04/17 13:18:56;;;;;;;;;;;;;;;15.75;29.00;101490.97;4939640;29;1395;-85
2022/04/17 13:21:21;;;;;;;;;;;;;;;17.58;26.51;101487.41;4939405;29;1186;-86
2022/04/17 13:23:46;;;;;;;;;;;;;;;19.78;23.18;101483.22;4939442;29;1968;-86
2022/04/17 13:26:12;;;;;;;;;;;;;;;23.07;20.43;101476.97;4932388;29;1341;-87
2022/04/17 13:28:38;;;;;;;;;;;;;;;25.04;17.89;101461.75;4924200;29;1324;-86
2022/04/17 13:31:03;;;;;;;;;;;;;;;26.14;16.00;101455.56;4935532;29;1508;-86
2022/04/17 13:33:28;;;;;;;;;;;;;;;26.90;15.24;101456.97;4955670;29;806;-86
2022/04/17 13:35:53;;;;;;;;;;;;;;;26.17;17.14;101452.84;4924449;29;1180;-86
2022/04/17 13:38:19;;;;;;;;;;;;;;;23.25;18.10;101455.28;4935008;29;1813;-86
2022/04/17 13:40:44;;;;;;;;;;;;;;;21.86;19.57;101452.50;4955654;29;1288;-86
2022/04/17 13:43:09;;;;;;;;;;;;;;;21.39;19.49;101445.28;4938828;29;1890;-87
2022/04/17 13:45:34;;;;;;;;;;;;;;;22.09;18.25;101453.13;4956118;29;1447;-87
2022/04/17 13:47:59;;;;;;;;;;;;;;;24.06;18.88;101457.41;4939485;29;1230;-86
2022/04/17 13:50:25;;;;;;;;;;;;;;;23.88;17.94;101456.81;4956059;28;1201;-86
2022/04/17 13:52:50;;;;;;;;;;;;;;;22.13;19.69;101447.69;4944777;29;1333;-87
2022/04/17 13:55:18;;;;;;;;;;;;;;;21.51;19.81;101451.81;4938044;29;1311;-88
2022/04/17 13:57:45;;;;;;;;;;;;;;;21.03;19.15;101443.63;4936641;29;1490;-86
2022/04/17 14:00:11;;;;;;;;;;;;;;;20.15;20.64;101439.41;4955547;29;1559;-87
2022/04/17 14:02:36;;;;;;;;;;;;;;;20.25;19.00;101430.75;4929920;29;1910;-86
2022/04/17 14:05:03;;;;;;;;;;;;;;;20.37;21.29;101425.41;4937926;29;1352;-87
2022/04/17 14:07:29;;;;;;;;;;;;;;;20.03;21.07;101424.16;4951866;29;1289;-87
2022/04/17 14:09:54;;;;;;;;;;;;;;;19.95;21.10;101424.94;4938177;29;1170;-87
2022/04/17 14:12:19;;;;;;;;;;;;;;;18.89;21.58;101427.66;4930469;29;1191;-87
2022/04/17 14:14:45;;;;;;;;;;;;;;;18.51;21.05;101416.06;4935152;29;807;-88
2022/04/17 14:17:10;;;;;;;;;;;;;;;19.33;20.54;101420.47;4943965;29;1368;-87
2022/04/17 14:19:35;;;;;;;;;;;;;;;19.40;20.18;101412.53;4936847;29;1306;-86
2022/04/17 14:22:01;;;;;;;;;;;;;;;18.76;21.20;101409.97;4935674;29;1965;-86
2022/04/17 14:24:27;;;;;;;;;;;;;;;18.99;21.26;101405.22;4954702;29;1016;-87
2022/04/17 14:26:52;;;;;;;;;;;;;;;17.98;22.34;101394.47;4955058;28;1202;-87
2022/04/17 14:29:17;;;;;;;;;;;;;;;18.97;20.46;101388.06;4937755;29;1269;-87
2022/04/17 14:31:43;;;;;;;;;;;;;;;18.83;20.84;101392.88;4937288;29;1176;-87
2022/04/17 14:34:09;;;;;;;;;;;;;;;17.88;22.68;101385.53;4950483;29;1201;-87
2022/04/17 14:36:35;;;;;;;;;;;;;;;17.59;23.56;101386.63;4934249;29;1237;-86
2022/04/17 14:39:01;;;;;;;;;;;;;;;18.57;20.87;101383.50;4930101;29;1431;-86
2022/04/17 14:41:26;;;;;;;;;;;;;;;18.66;21.11;101367.78;4923649;29;1250;-87
2022/04/17 14:43:52;;;;;;;;;;;;;;;17.56;21.87;101365.09;4918363;29;1890;-87
2022/04/17 14:46:17;;;;;;;;;;;;;;;17.14;24.30;101360.59;4934313;29;1276;-86
2022/04/17 14:48:42;;;;;;;;;;;;;;;17.33;22.83;101355.84;4937535;29;1305;-86
2022/04/17 14:51:07;;;;;;;;;;;;;;;17.60;23.12;101357.81;4953651;29;1166;-87
2022/04/17 14:53:33;;;;;;;;;;;;;;;17.56;22.13;101353.19;4954013;29;783;-88
2022/04/17 14:56:02;;;;;;;;;;;;;;;18.17;24.28;101354.72;4953696;29;843;-86
2022/04/17 14:58:27;;;;;;;;;;;;;;;19.16;23.93;101344.31;4937017;29;1482;-86
2022/04/17 15:00:53;;;;;;;;;;;;;;;19.64;23.39;101341.66;4937779;29;1598;-87
2022/04/17 15:03:18;;;;;;;;;;;;;;;20.75;20.89;101340.22;4937288;29;1899;-87
2022/04/17 15:05:43;;;;;;;;;;;;;;;20.69;19.84;101326.78;4937105;28;1536;-88
2022/04/17 15:08:09;;;;;;;;;;;;;;;20.69;20.04;101330.38;4937160;29;1362;-88
2022/04/17 15:10:36;;;;;;;;;;;;;;;21.17;20.03;101321.00;4934808;29;1489;-87
2022/04/17 15:13:03;;;;;;;;;;;;;;;21.30;18.89;101303.25;4936870;29;1258;-88
2022/04/17 15:15:29;;;;;;;;;;;;;;;22.05;19.59;101312.75;4937416;29;1409;-88
2022/04/17 15:17:55;;;;;;;;;;;;;;;23.14;18.22;101318.03;4937226;29;1456;-86
2022/04/17 15:20:20;;;;;;;;;;;;;;;22.94;17.46;101316.97;4954230;28;1569;-86
2022/04/17 15:22:45;;;;;;;;;;;;;;;22.66;18.01;101310.28;4936743;29;1910;-88
2022/04/17 15:25:10;;;;;;;;;;;;;;;23.45;17.36;101311.94;4954413;28;973;-87
2022/04/17 15:27:35;;;;;;;;;;;;;;;23.91;17.54;101304.25;4939338;29;1400;-86
2022/04/17 15:30:01;;;;;;;;;;;;;;;21.31;20.60;101298.50;4957921;29;980;-87
2022/04/17 15:32:26;;;;;;;;;;;;;;;20.17;20.97;101295.31;4937835;29;1257;-86
2022/04/17 15:34:51;;;;;;;;;;;;;;;19.60;22.51;101304.53;4937993;29;938;-87
2022/04/17 15:37:16;;;;;;;;;;;;;;;19.96;22.48;101298.75;4938326;29;1363;-87
2022/04/17 15:39:41;;;;;;;;;;;;;;;19.87;21.52;101299.88;4938515;29;1167;-87
2022/04/17 15:42:08;;;;;;;;;;;;;;;21.07;18.57;101287.94;4953908;29;1890;-87
2022/04/17 15:50:02;;;;;;;;;;;;;;;19.30;20.09;101296.22;4958761;29;1541;-86
2022/04/17 15:52:27;;;;;;;;;;;;;;;19.50;20.74;101288.16;4958517;29;1952;-88
2022/04/17 15:54:52;;;;;;;;;;;;;;;20.83;18.72;101288.47;4940894;29;1424;-87
2022/04/17 15:57:19;;;;;;;;;;;;;;;20.03;19.58;101287.16;4941309;29;1347;-86
2022/04/17 15:59:45;;;;;;;;;;;;;;;20.00;21.23;101280.28;4940250;29;1478;-87
2022/04/17 16:02:10;;;;;;;;;;;;;;;20.89;20.17;101283.53;4940683;29;1956;-87
2022/04/17 16:04:35;;;;;;;;;;;;;;;20.74;21.11;101282.94;4940559;29;1732;-87
2022/04/17 16:07:00;;;;;;;;;;;;;;;20.99;20.61;101274.84;4940886;28;1582;-86
2022/04/17 16:09:25;;;;;;;;;;;;;;;22.32;19.43;101275.13;4940826;29;1653;-87
2022/04/17 16:11:50;;;;;;;;;;;;;;;22.69;18.21;101267.75;4940904;29;981;-88
2022/04/17 16:14:16;;;;;;;;;;;;;;;22.38;19.38;101268.19;4932825;29;1164;-85
2022/04/17 16:16:41;;;;;;;;;;;;;;;22.19;18.61;101271.50;4925404;29;1665;-87
2022/04/17 16:19:06;;;;;;;;;;;;;;;22.64;19.42;101267.94;4958017;29;1178;-87
2022/04/17 16:21:32;;;;;;;;;;;;;;;21.94;18.80;101266.88;4940527;29;1353;-90
2022/04/17 16:23:57;;;;;;;;;;;;;;;21.88;20.51;101273.78;4940888;29;1959;-88
2022/04/17 16:26:22;;;;;;;;;;;;;;;21.37;21.25;101269.31;4940743;29;1277;-87
2022/04/17 16:28:47;;;;;;;;;;;;;;;20.69;20.82;101263.59;4939902;28;1392;-88
2022/04/17 16:31:12;;;;;;;;;;;;;;;20.41;20.95;101267.09;4940471;29;1068;-87
2022/04/17 16:33:38;;;;;;;;;;;;;;;20.16;22.06;101260.38;4935454;29;1438;-87
2022/04/17 16:36:04;;;;;;;;;;;;;;;19.83;21.87;101259.97;4939471;29;1384;-87
2022/04/17 16:38:29;;;;;;;;;;;;;;;20.00;21.07;101246.91;4939911;29;1367;-87
2022/04/17 16:40:54;;;;;;;;;;;;;;;20.03;20.29;101249.06;4954862;29;1327;-87
2022/04/17 16:43:21;;;;;;;;;;;;;;;19.64;20.86;101249.16;4952160;29;1902;-87
2022/04/17 16:45:46;;;;;;;;;;;;;;;19.02;21.96;101243.69;4940153;29;1268;-87
2022/04/17 16:48:11;;;;;;;;;;;;;;;18.63;22.53;101240.84;4940179;29;1399;-86
2022/04/17 16:50:36;;;;;;;;;;;;;;;18.31;21.86;101239.09;4940168;29;998;-87
2022/04/17 16:53:01;;;;;;;;;;;;;;;17.89;22.59;101243.97;4939122;29;1430;-87